sensor_id;sensor_type;location;lat;lon;timestamp;P1;durP1;ratioP1;P2;durP2;ratioP2
8319;SDS011;4197;42.130;24.746;2023-02-10T00:01:38;25.90;;;12.67;;
8319;SDS011;4197;42.130;24.746;2023-02-10T00:04:06;25.10;;;12.73;;
8319;SDS011;4197;42.130;24.746;2023-02-10T00:06:36;20.53;;;12.57;;
8319;SDS011;4197;42.130;24.746;2023-02-10T00:09:05;19.70;;;12.00;;
8319;SDS011;4197;42.130;24.746;2023-02-10T00:11:34;25.73;;;13.23;;
8319;SDS011;4197;42.130;24.746;2023-02-10T00:14:19;22.03;;;12.20;;
8319;SDS011;4197;42.130;24.746;2023-02-10T00:16:48;26.17;;;12.73;;
8319;SDS011;4197;42.130;24.746;2023-02-10T00:19:18;26.67;;;13.47;;
8319;SDS011;4197;42.130;24.746;2023-02-10T00:21:48;27.53;;;13.33;;
8319;SDS011;4197;42.130;24.746;2023-02-10T00:24:16;21.57;;;13.23;;
8319;SDS011;4197;42.130;24.746;2023-02-10T00:26:44;24.57;;;13.33;;
8319;SDS011;4197;42.130;24.746;2023-02-10T00:29:13;26.53;;;13.50;;
8319;SDS011;4197;42.130;24.746;2023-02-10T00:31:41;22.03;;;13.20;;
8319;SDS011;4197;42.130;24.746;2023-02-10T00:34:10;22.93;;;12.90;;
8319;SDS011;4197;42.130;24.746;2023-02-10T00:36:40;23.53;;;12.87;;
8319;SDS011;4197;42.130;24.746;2023-02-10T00:39:13;21.73;;;12.77;;
8319;SDS011;4197;42.130;24.746;2023-02-10T00:41:41;23.93;;;12.17;;
8319;SDS011;4197;42.130;24.746;2023-02-10T00:44:10;31.73;;;14.60;;
8319;SDS011;4197;42.130;24.746;2023-02-10T00:46:38;24.20;;;13.30;;
8319;SDS011;4197;42.130;24.746;2023-02-10T00:49:08;49.53;;;16.27;;
8319;SDS011;4197;42.130;24.746;2023-02-10T00:51:37;48.87;;;17.33;;
8319;SDS011;4197;42.130;24.746;2023-02-10T00:54:06;36.17;;;15.73;;
8319;SDS011;4197;42.130;24.746;2023-02-10T00:56:35;41.80;;;15.50;;
8319;SDS011;4197;42.130;24.746;2023-02-10T00:59:03;115.03;;;23.10;;
8319;SDS011;4197;42.130;24.746;2023-02-10T01:01:31;138.07;;;27.77;;
8319;SDS011;4197;42.130;24.746;2023-02-10T01:04:00;76.53;;;20.20;;
8319;SDS011;4197;42.130;24.746;2023-02-10T01:06:28;68.80;;;19.63;;
8319;SDS011;4197;42.130;24.746;2023-02-10T01:08:56;47.43;;;15.73;;
8319;SDS011;4197;42.130;24.746;2023-02-10T01:11:24;54.47;;;16.93;;
8319;SDS011;4197;42.130;24.746;2023-02-10T01:13:54;47.23;;;18.37;;
8319;SDS011;4197;42.130;24.746;2023-02-10T01:16:22;46.93;;;17.83;;
8319;SDS011;4197;42.130;24.746;2023-02-10T01:18:50;45.03;;;18.17;;
8319;SDS011;4197;42.130;24.746;2023-02-10T01:21:20;37.57;;;17.37;;
8319;SDS011;4197;42.130;24.746;2023-02-10T01:23:48;40.97;;;17.93;;
8319;SDS011;4197;42.130;24.746;2023-02-10T01:26:17;43.17;;;16.70;;
8319;SDS011;4197;42.130;24.746;2023-02-10T01:28:45;31.27;;;17.60;;
8319;SDS011;4197;42.130;24.746;2023-02-10T01:31:16;39.53;;;18.30;;
8319;SDS011;4197;42.130;24.746;2023-02-10T01:33:45;31.93;;;17.63;;
8319;SDS011;4197;42.130;24.746;2023-02-10T01:36:15;34.57;;;16.60;;
8319;SDS011;4197;42.130;24.746;2023-02-10T01:38:44;32.33;;;17.47;;
8319;SDS011;4197;42.130;24.746;2023-02-10T01:41:13;32.50;;;18.33;;
8319;SDS011;4197;42.130;24.746;2023-02-10T01:43:53;40.20;;;19.00;;
8319;SDS011;4197;42.130;24.746;2023-02-10T01:46:28;40.00;;;18.83;;
8319;SDS011;4197;42.130;24.746;2023-02-10T01:48:58;33.67;;;18.27;;
8319;SDS011;4197;42.130;24.746;2023-02-10T01:51:31;33.30;;;16.33;;
8319;SDS011;4197;42.130;24.746;2023-02-10T01:54:05;36.60;;;18.80;;
8319;SDS011;4197;42.130;24.746;2023-02-10T01:56:37;42.40;;;19.20;;
8319;SDS011;4197;42.130;24.746;2023-02-10T01:59:05;44.63;;;20.23;;
8319;SDS011;4197;42.130;24.746;2023-02-10T02:01:35;46.80;;;21.00;;
8319;SDS011;4197;42.130;24.746;2023-02-10T02:04:04;45.63;;;20.93;;
8319;SDS011;4197;42.130;24.746;2023-02-10T02:06:32;41.10;;;19.97;;
8319;SDS011;4197;42.130;24.746;2023-02-10T02:09:01;34.30;;;19.07;;
8319;SDS011;4197;42.130;24.746;2023-02-10T02:11:31;37.90;;;17.20;;
8319;SDS011;4197;42.130;24.746;2023-02-10T02:14:14;34.43;;;18.30;;
8319;SDS011;4197;42.130;24.746;2023-02-10T02:16:59;40.87;;;17.77;;
8319;SDS011;4197;42.130;24.746;2023-02-10T02:19:48;34.90;;;17.83;;
8319;SDS011;4197;42.130;24.746;2023-02-10T02:23:08;36.23;;;18.57;;
8319;SDS011;4197;42.130;24.746;2023-02-10T02:25:51;37.00;;;19.60;;
8319;SDS011;4197;42.130;24.746;2023-02-10T02:28:38;41.57;;;19.10;;
8319;SDS011;4197;42.130;24.746;2023-02-10T02:34:14;37.67;;;17.10;;
8319;SDS011;4197;42.130;24.746;2023-02-10T02:36:47;37.23;;;19.73;;
8319;SDS011;4197;42.130;24.746;2023-02-10T02:39:20;34.97;;;17.87;;
8319;SDS011;4197;42.130;24.746;2023-02-10T02:41:58;39.20;;;18.57;;
8319;SDS011;4197;42.130;24.746;2023-02-10T02:44:40;40.57;;;18.20;;
8319;SDS011;4197;42.130;24.746;2023-02-10T02:47:11;35.73;;;18.40;;
8319;SDS011;4197;42.130;24.746;2023-02-10T02:49:47;32.70;;;19.23;;
8319;SDS011;4197;42.130;24.746;2023-02-10T02:52:23;35.17;;;18.73;;
8319;SDS011;4197;42.130;24.746;2023-02-10T02:54:59;31.37;;;17.90;;
8319;SDS011;4197;42.130;24.746;2023-02-10T02:57:36;37.23;;;18.30;;
8319;SDS011;4197;42.130;24.746;2023-02-10T03:00:14;38.20;;;19.67;;
8319;SDS011;4197;42.130;24.746;2023-02-10T03:02:47;43.57;;;20.73;;
8319;SDS011;4197;42.130;24.746;2023-02-10T03:05:17;30.77;;;18.40;;
8319;SDS011;4197;42.130;24.746;2023-02-10T03:07:47;38.70;;;20.17;;
8319;SDS011;4197;42.130;24.746;2023-02-10T03:10:15;34.70;;;18.83;;
8319;SDS011;4197;42.130;24.746;2023-02-10T03:12:44;37.27;;;17.80;;
8319;SDS011;4197;42.130;24.746;2023-02-10T03:15:12;42.00;;;19.50;;
8319;SDS011;4197;42.130;24.746;2023-02-10T03:17:40;37.77;;;18.73;;
8319;SDS011;4197;42.130;24.746;2023-02-10T03:20:10;59.73;;;21.43;;
8319;SDS011;4197;42.130;24.746;2023-02-10T03:22:40;47.47;;;20.60;;
8319;SDS011;4197;42.130;24.746;2023-02-10T03:25:08;45.50;;;20.97;;
8319;SDS011;4197;42.130;24.746;2023-02-10T03:27:36;39.30;;;20.03;;
8319;SDS011;4197;42.130;24.746;2023-02-10T03:30:05;35.57;;;19.60;;
8319;SDS011;4197;42.130;24.746;2023-02-10T03:32:33;40.87;;;20.03;;
8319;SDS011;4197;42.130;24.746;2023-02-10T03:35:01;36.43;;;18.67;;
8319;SDS011;4197;42.130;24.746;2023-02-10T03:37:31;37.90;;;19.10;;
8319;SDS011;4197;42.130;24.746;2023-02-10T03:39:59;32.83;;;18.80;;
8319;SDS011;4197;42.130;24.746;2023-02-10T03:42:27;49.33;;;19.83;;
8319;SDS011;4197;42.130;24.746;2023-02-10T03:44:55;39.07;;;19.20;;
8319;SDS011;4197;42.130;24.746;2023-02-10T03:47:23;38.03;;;21.00;;
8319;SDS011;4197;42.130;24.746;2023-02-10T03:49:51;42.40;;;19.97;;
8319;SDS011;4197;42.130;24.746;2023-02-10T03:52:20;44.63;;;22.07;;
8319;SDS011;4197;42.130;24.746;2023-02-10T03:54:49;50.10;;;19.93;;
8319;SDS011;4197;42.130;24.746;2023-02-10T03:57:17;32.43;;;17.70;;
8319;SDS011;4197;42.130;24.746;2023-02-10T03:59:46;34.67;;;17.83;;
8319;SDS011;4197;42.130;24.746;2023-02-10T04:02:14;31.53;;;17.37;;
8319;SDS011;4197;42.130;24.746;2023-02-10T04:04:42;38.80;;;18.77;;
8319;SDS011;4197;42.130;24.746;2023-02-10T04:07:10;33.67;;;18.83;;
8319;SDS011;4197;42.130;24.746;2023-02-10T04:09:38;33.60;;;17.73;;
8319;SDS011;4197;42.130;24.746;2023-02-10T04:12:08;36.43;;;18.57;;
8319;SDS011;4197;42.130;24.746;2023-02-10T04:14:36;34.13;;;17.97;;
8319;SDS011;4197;42.130;24.746;2023-02-10T04:17:04;32.30;;;16.97;;
8319;SDS011;4197;42.130;24.746;2023-02-10T04:19:32;35.90;;;16.83;;
8319;SDS011;4197;42.130;24.746;2023-02-10T04:22:00;31.53;;;16.77;;
8319;SDS011;4197;42.130;24.746;2023-02-10T04:24:29;35.47;;;17.93;;
8319;SDS011;4197;42.130;24.746;2023-02-10T04:26:57;35.40;;;16.80;;
8319;SDS011;4197;42.130;24.746;2023-02-10T04:29:27;28.33;;;16.77;;
8319;SDS011;4197;42.130;24.746;2023-02-10T04:31:55;28.90;;;15.77;;
8319;SDS011;4197;42.130;24.746;2023-02-10T04:34:23;32.50;;;17.57;;
8319;SDS011;4197;42.130;24.746;2023-02-10T04:36:51;35.03;;;18.57;;
8319;SDS011;4197;42.130;24.746;2023-02-10T04:39:19;38.53;;;18.47;;
8319;SDS011;4197;42.130;24.746;2023-02-10T04:41:47;28.23;;;17.33;;
8319;SDS011;4197;42.130;24.746;2023-02-10T04:44:15;28.67;;;17.70;;
8319;SDS011;4197;42.130;24.746;2023-02-10T04:46:45;39.03;;;18.23;;
8319;SDS011;4197;42.130;24.746;2023-02-10T04:49:14;35.20;;;18.13;;
8319;SDS011;4197;42.130;24.746;2023-02-10T04:51:42;37.43;;;18.60;;
8319;SDS011;4197;42.130;24.746;2023-02-10T04:54:10;40.13;;;20.13;;
8319;SDS011;4197;42.130;24.746;2023-02-10T04:56:39;32.40;;;18.00;;
8319;SDS011;4197;42.130;24.746;2023-02-10T04:59:07;34.77;;;17.83;;
8319;SDS011;4197;42.130;24.746;2023-02-10T05:01:35;28.07;;;17.60;;
8319;SDS011;4197;42.130;24.746;2023-02-10T05:04:05;33.53;;;18.30;;
8319;SDS011;4197;42.130;24.746;2023-02-10T05:06:34;29.90;;;18.17;;
8319;SDS011;4197;42.130;24.746;2023-02-10T05:09:03;39.93;;;20.27;;
8319;SDS011;4197;42.130;24.746;2023-02-10T05:11:31;35.20;;;18.70;;
8319;SDS011;4197;42.130;24.746;2023-02-10T05:13:59;34.67;;;19.63;;
8319;SDS011;4197;42.130;24.746;2023-02-10T05:16:28;35.97;;;17.97;;
8319;SDS011;4197;42.130;24.746;2023-02-10T05:18:56;33.80;;;17.93;;
8319;SDS011;4197;42.130;24.746;2023-02-10T05:21:26;35.27;;;18.13;;
8319;SDS011;4197;42.130;24.746;2023-02-10T05:23:54;28.30;;;16.10;;
8319;SDS011;4197;42.130;24.746;2023-02-10T05:26:24;28.57;;;15.93;;
8319;SDS011;4197;42.130;24.746;2023-02-10T05:28:52;32.37;;;16.27;;
8319;SDS011;4197;42.130;24.746;2023-02-10T05:31:20;26.63;;;15.33;;
8319;SDS011;4197;42.130;24.746;2023-02-10T05:33:49;29.93;;;17.50;;
8319;SDS011;4197;42.130;24.746;2023-02-10T05:36:18;30.20;;;16.60;;
8319;SDS011;4197;42.130;24.746;2023-02-10T05:38:48;30.63;;;18.00;;
8319;SDS011;4197;42.130;24.746;2023-02-10T05:41:29;28.00;;;15.87;;
8319;SDS011;4197;42.130;24.746;2023-02-10T05:44:00;37.80;;;19.13;;
8319;SDS011;4197;42.130;24.746;2023-02-10T05:46:28;33.23;;;17.93;;
8319;SDS011;4197;42.130;24.746;2023-02-10T05:48:56;32.97;;;18.60;;
8319;SDS011;4197;42.130;24.746;2023-02-10T05:51:24;30.20;;;17.10;;
8319;SDS011;4197;42.130;24.746;2023-02-10T05:53:54;28.20;;;16.40;;
8319;SDS011;4197;42.130;24.746;2023-02-10T05:56:22;28.67;;;15.97;;
8319;SDS011;4197;42.130;24.746;2023-02-10T05:58:51;29.97;;;15.87;;
8319;SDS011;4197;42.130;24.746;2023-02-10T06:01:19;33.67;;;16.23;;
8319;SDS011;4197;42.130;24.746;2023-02-10T06:03:47;29.00;;;16.47;;
8319;SDS011;4197;42.130;24.746;2023-02-10T06:06:15;33.77;;;16.83;;
8319;SDS011;4197;42.130;24.746;2023-02-10T06:08:44;32.17;;;18.37;;
8319;SDS011;4197;42.130;24.746;2023-02-10T06:11:14;30.87;;;17.23;;
8319;SDS011;4197;42.130;24.746;2023-02-10T06:13:42;32.43;;;16.70;;
8319;SDS011;4197;42.130;24.746;2023-02-10T06:16:11;29.93;;;16.60;;
8319;SDS011;4197;42.130;24.746;2023-02-10T06:18:40;29.47;;;16.27;;
8319;SDS011;4197;42.130;24.746;2023-02-10T06:21:08;31.53;;;16.47;;
8319;SDS011;4197;42.130;24.746;2023-02-10T06:23:37;34.07;;;19.77;;
8319;SDS011;4197;42.130;24.746;2023-02-10T06:26:05;34.30;;;20.83;;
8319;SDS011;4197;42.130;24.746;2023-02-10T06:28:34;35.30;;;20.57;;
8319;SDS011;4197;42.130;24.746;2023-02-10T06:31:03;43.50;;;20.80;;
8319;SDS011;4197;42.130;24.746;2023-02-10T06:33:31;38.43;;;19.90;;
8319;SDS011;4197;42.130;24.746;2023-02-10T06:36:01;31.73;;;17.37;;
8319;SDS011;4197;42.130;24.746;2023-02-10T06:38:31;39.13;;;19.20;;
8319;SDS011;4197;42.130;24.746;2023-02-10T06:40:59;32.87;;;17.33;;
8319;SDS011;4197;42.130;24.746;2023-02-10T06:43:28;28.07;;;16.73;;
8319;SDS011;4197;42.130;24.746;2023-02-10T06:45:57;28.27;;;15.87;;
8319;SDS011;4197;42.130;24.746;2023-02-10T06:48:25;30.40;;;16.77;;
8319;SDS011;4197;42.130;24.746;2023-02-10T06:50:54;26.60;;;15.03;;
8319;SDS011;4197;42.130;24.746;2023-02-10T06:53:22;32.60;;;14.37;;
8319;SDS011;4197;42.130;24.746;2023-02-10T06:55:50;26.70;;;13.27;;
8319;SDS011;4197;42.130;24.746;2023-02-10T06:58:18;27.23;;;14.73;;
8319;SDS011;4197;42.130;24.746;2023-02-10T07:00:46;31.30;;;16.43;;
8319;SDS011;4197;42.130;24.746;2023-02-10T07:03:16;26.13;;;14.90;;
8319;SDS011;4197;42.130;24.746;2023-02-10T07:05:44;27.00;;;15.23;;
8319;SDS011;4197;42.130;24.746;2023-02-10T07:08:13;32.77;;;16.13;;
8319;SDS011;4197;42.130;24.746;2023-02-10T07:10:42;28.50;;;15.53;;
8319;SDS011;4197;42.130;24.746;2023-02-10T07:13:10;29.83;;;15.37;;
8319;SDS011;4197;42.130;24.746;2023-02-10T07:15:38;26.93;;;13.00;;
8319;SDS011;4197;42.130;24.746;2023-02-10T07:18:06;29.83;;;14.70;;
8319;SDS011;4197;42.130;24.746;2023-02-10T07:20:36;30.00;;;13.40;;
8319;SDS011;4197;42.130;24.746;2023-02-10T07:23:04;24.20;;;13.50;;
8319;SDS011;4197;42.130;24.746;2023-02-10T07:25:32;23.00;;;12.93;;
8319;SDS011;4197;42.130;24.746;2023-02-10T07:28:01;32.47;;;15.13;;
8319;SDS011;4197;42.130;24.746;2023-02-10T07:30:29;28.90;;;15.23;;
8319;SDS011;4197;42.130;24.746;2023-02-10T07:32:57;23.13;;;13.37;;
8319;SDS011;4197;42.130;24.746;2023-02-10T07:35:26;20.17;;;12.87;;
8319;SDS011;4197;42.130;24.746;2023-02-10T07:37:55;29.03;;;14.37;;
8319;SDS011;4197;42.130;24.746;2023-02-10T07:40:24;30.23;;;15.20;;
8319;SDS011;4197;42.130;24.746;2023-02-10T07:42:55;26.43;;;14.77;;
8319;SDS011;4197;42.130;24.746;2023-02-10T07:45:23;21.00;;;14.50;;
8319;SDS011;4197;42.130;24.746;2023-02-10T07:47:52;27.77;;;15.37;;
8319;SDS011;4197;42.130;24.746;2023-02-10T07:50:20;26.83;;;14.40;;
8319;SDS011;4197;42.130;24.746;2023-02-10T07:52:49;27.07;;;13.23;;
8319;SDS011;4197;42.130;24.746;2023-02-10T07:55:19;29.13;;;13.80;;
8319;SDS011;4197;42.130;24.746;2023-02-10T07:57:47;24.13;;;13.63;;
8319;SDS011;4197;42.130;24.746;2023-02-10T08:00:15;24.20;;;14.00;;
8319;SDS011;4197;42.130;24.746;2023-02-10T08:02:43;23.17;;;13.07;;
8319;SDS011;4197;42.130;24.746;2023-02-10T08:05:11;26.70;;;13.77;;
8319;SDS011;4197;42.130;24.746;2023-02-10T08:07:40;23.53;;;13.87;;
8319;SDS011;4197;42.130;24.746;2023-02-10T08:10:08;25.30;;;12.97;;
8319;SDS011;4197;42.130;24.746;2023-02-10T08:12:38;21.93;;;13.53;;
8319;SDS011;4197;42.130;24.746;2023-02-10T08:15:07;24.40;;;13.77;;
8319;SDS011;4197;42.130;24.746;2023-02-10T08:17:35;25.67;;;13.73;;
8319;SDS011;4197;42.130;24.746;2023-02-10T08:20:05;21.80;;;12.83;;
8319;SDS011;4197;42.130;24.746;2023-02-10T08:22:34;19.57;;;11.90;;
8319;SDS011;4197;42.130;24.746;2023-02-10T08:25:02;23.80;;;12.43;;
8319;SDS011;4197;42.130;24.746;2023-02-10T08:27:30;24.37;;;11.90;;
8319;SDS011;4197;42.130;24.746;2023-02-10T08:30:00;22.17;;;11.60;;
8319;SDS011;4197;42.130;24.746;2023-02-10T08:32:31;18.93;;;12.20;;
8319;SDS011;4197;42.130;24.746;2023-02-10T08:34:59;21.40;;;11.60;;
8319;SDS011;4197;42.130;24.746;2023-02-10T08:37:28;16.87;;;10.80;;
8319;SDS011;4197;42.130;24.746;2023-02-10T08:39:56;21.00;;;11.50;;
8319;SDS011;4197;42.130;24.746;2023-02-10T08:42:24;22.50;;;11.20;;
8319;SDS011;4197;42.130;24.746;2023-02-10T08:44:52;19.07;;;11.17;;
8319;SDS011;4197;42.130;24.746;2023-02-10T08:47:22;21.83;;;12.03;;
8319;SDS011;4197;42.130;24.746;2023-02-10T08:49:50;20.60;;;11.67;;
8319;SDS011;4197;42.130;24.746;2023-02-10T08:52:18;19.03;;;10.17;;
8319;SDS011;4197;42.130;24.746;2023-02-10T08:54:47;21.00;;;11.33;;
8319;SDS011;4197;42.130;24.746;2023-02-10T08:57:15;16.53;;;10.60;;
8319;SDS011;4197;42.130;24.746;2023-02-10T08:59:44;21.50;;;10.97;;
8319;SDS011;4197;42.130;24.746;2023-02-10T09:02:13;18.60;;;12.53;;
8319;SDS011;4197;42.130;24.746;2023-02-10T09:04:42;19.27;;;11.93;;
8319;SDS011;4197;42.130;24.746;2023-02-10T09:07:13;18.57;;;10.23;;
8319;SDS011;4197;42.130;24.746;2023-02-10T09:09:42;20.43;;;13.13;;
8319;SDS011;4197;42.130;24.746;2023-02-10T09:12:11;20.37;;;10.57;;
8319;SDS011;4197;42.130;24.746;2023-02-10T09:14:40;21.40;;;11.10;;
8319;SDS011;4197;42.130;24.746;2023-02-10T09:17:09;16.63;;;11.27;;
8319;SDS011;4197;42.130;24.746;2023-02-10T09:19:38;17.53;;;11.27;;
8319;SDS011;4197;42.130;24.746;2023-02-10T09:22:09;24.53;;;12.83;;
8319;SDS011;4197;42.130;24.746;2023-02-10T09:24:37;21.33;;;11.73;;
8319;SDS011;4197;42.130;24.746;2023-02-10T09:27:05;19.50;;;10.57;;
8319;SDS011;4197;42.130;24.746;2023-02-10T09:29:33;18.33;;;12.23;;
8319;SDS011;4197;42.130;24.746;2023-02-10T09:32:01;19.27;;;12.17;;
8319;SDS011;4197;42.130;24.746;2023-02-10T09:34:30;21.73;;;10.87;;
8319;SDS011;4197;42.130;24.746;2023-02-10T09:36:58;17.97;;;10.67;;
8319;SDS011;4197;42.130;24.746;2023-02-10T09:39:29;14.47;;;9.63;;
8319;SDS011;4197;42.130;24.746;2023-02-10T09:42:01;16.83;;;10.73;;
8319;SDS011;4197;42.130;24.746;2023-02-10T09:44:37;17.60;;;11.33;;
8319;SDS011;4197;42.130;24.746;2023-02-10T09:47:23;17.80;;;10.07;;
8319;SDS011;4197;42.130;24.746;2023-02-10T09:50:17;20.27;;;10.60;;
8319;SDS011;4197;42.130;24.746;2023-02-10T09:53:04;15.53;;;9.23;;
8319;SDS011;4197;42.130;24.746;2023-02-10T09:55:40;18.47;;;10.63;;
8319;SDS011;4197;42.130;24.746;2023-02-10T09:58:14;13.43;;;8.30;;
8319;SDS011;4197;42.130;24.746;2023-02-10T10:00:49;15.93;;;9.63;;
8319;SDS011;4197;42.130;24.746;2023-02-10T10:03:24;17.97;;;10.17;;
8319;SDS011;4197;42.130;24.746;2023-02-10T10:05:59;19.57;;;11.13;;
8319;SDS011;4197;42.130;24.746;2023-02-10T10:08:34;16.07;;;9.90;;
8319;SDS011;4197;42.130;24.746;2023-02-10T10:11:17;16.73;;;10.10;;
8319;SDS011;4197;42.130;24.746;2023-02-10T10:13:51;21.40;;;11.90;;
8319;SDS011;4197;42.130;24.746;2023-02-10T10:16:23;20.60;;;9.80;;
8319;SDS011;4197;42.130;24.746;2023-02-10T10:19:10;18.87;;;9.83;;
8319;SDS011;4197;42.130;24.746;2023-02-10T10:21:52;16.53;;;9.33;;
8319;SDS011;4197;42.130;24.746;2023-02-10T10:24:34;14.87;;;9.13;;
8319;SDS011;4197;42.130;24.746;2023-02-10T10:27:15;15.07;;;10.03;;
8319;SDS011;4197;42.130;24.746;2023-02-10T10:29:53;16.13;;;10.47;;
8319;SDS011;4197;42.130;24.746;2023-02-10T10:32:26;22.47;;;11.30;;
8319;SDS011;4197;42.130;24.746;2023-02-10T10:35:05;18.50;;;10.17;;
8319;SDS011;4197;42.130;24.746;2023-02-10T10:37:41;20.27;;;10.00;;
8319;SDS011;4197;42.130;24.746;2023-02-10T10:40:13;17.67;;;10.50;;
8319;SDS011;4197;42.130;24.746;2023-02-10T10:42:47;20.10;;;9.97;;
8319;SDS011;4197;42.130;24.746;2023-02-10T10:45:18;15.40;;;9.60;;
8319;SDS011;4197;42.130;24.746;2023-02-10T10:47:51;16.90;;;10.23;;
8319;SDS011;4197;42.130;24.746;2023-02-10T10:50:23;13.90;;;8.90;;
8319;SDS011;4197;42.130;24.746;2023-02-10T10:52:52;17.43;;;9.10;;
8319;SDS011;4197;42.130;24.746;2023-02-10T10:55:22;12.73;;;8.27;;
8319;SDS011;4197;42.130;24.746;2023-02-10T10:57:55;20.30;;;9.57;;
8319;SDS011;4197;42.130;24.746;2023-02-10T11:00:27;13.27;;;9.27;;
8319;SDS011;4197;42.130;24.746;2023-02-10T11:02:58;14.07;;;8.80;;
8319;SDS011;4197;42.130;24.746;2023-02-10T11:05:28;17.67;;;9.90;;
8319;SDS011;4197;42.130;24.746;2023-02-10T11:07:58;15.23;;;7.87;;
8319;SDS011;4197;42.130;24.746;2023-02-10T11:10:30;12.37;;;9.00;;
8319;SDS011;4197;42.130;24.746;2023-02-10T11:13:04;14.07;;;8.83;;
8319;SDS011;4197;42.130;24.746;2023-02-10T11:15:36;12.83;;;8.53;;
8319;SDS011;4197;42.130;24.746;2023-02-10T11:18:07;17.23;;;8.63;;
8319;SDS011;4197;42.130;24.746;2023-02-10T11:20:51;20.07;;;11.33;;
8319;SDS011;4197;42.130;24.746;2023-02-10T11:23:21;13.10;;;8.63;;
8319;SDS011;4197;42.130;24.746;2023-02-10T11:25:55;14.37;;;8.50;;
8319;SDS011;4197;42.130;24.746;2023-02-10T11:28:28;13.50;;;7.93;;
8319;SDS011;4197;42.130;24.746;2023-02-10T11:30:59;12.30;;;8.00;;
8319;SDS011;4197;42.130;24.746;2023-02-10T11:33:30;11.43;;;7.50;;
8319;SDS011;4197;42.130;24.746;2023-02-10T11:36:02;11.57;;;7.83;;
8319;SDS011;4197;42.130;24.746;2023-02-10T11:38:33;12.50;;;7.83;;
8319;SDS011;4197;42.130;24.746;2023-02-10T11:41:04;16.13;;;8.37;;
8319;SDS011;4197;42.130;24.746;2023-02-10T11:43:39;11.07;;;8.80;;
8319;SDS011;4197;42.130;24.746;2023-02-10T11:46:16;11.00;;;7.60;;
8319;SDS011;4197;42.130;24.746;2023-02-10T11:48:51;14.13;;;8.57;;
8319;SDS011;4197;42.130;24.746;2023-02-10T11:51:20;12.20;;;8.60;;
8319;SDS011;4197;42.130;24.746;2023-02-10T11:53:49;13.97;;;8.07;;
8319;SDS011;4197;42.130;24.746;2023-02-10T11:56:18;16.93;;;8.23;;
8319;SDS011;4197;42.130;24.746;2023-02-10T11:59:14;16.00;;;8.37;;
8319;SDS011;4197;42.130;24.746;2023-02-10T12:01:55;16.53;;;9.90;;
8319;SDS011;4197;42.130;24.746;2023-02-10T12:04:29;13.53;;;8.77;;
8319;SDS011;4197;42.130;24.746;2023-02-10T12:07:07;13.63;;;8.83;;
8319;SDS011;4197;42.130;24.746;2023-02-10T12:09:43;11.97;;;7.37;;
8319;SDS011;4197;42.130;24.746;2023-02-10T12:12:22;15.37;;;7.77;;
8319;SDS011;4197;42.130;24.746;2023-02-10T12:15:01;17.60;;;7.53;;
8319;SDS011;4197;42.130;24.746;2023-02-10T12:17:37;11.50;;;7.43;;
8319;SDS011;4197;42.130;24.746;2023-02-10T12:20:18;14.23;;;8.17;;
8319;SDS011;4197;42.130;24.746;2023-02-10T12:23:04;14.93;;;8.83;;
8319;SDS011;4197;42.130;24.746;2023-02-10T12:25:49;14.67;;;9.00;;
8319;SDS011;4197;42.130;24.746;2023-02-10T12:28:30;16.13;;;9.33;;
8319;SDS011;4197;42.130;24.746;2023-02-10T12:31:11;13.03;;;8.47;;
8319;SDS011;4197;42.130;24.746;2023-02-10T12:33:50;14.13;;;9.77;;
8319;SDS011;4197;42.130;24.746;2023-02-10T12:36:38;16.83;;;9.23;;
8319;SDS011;4197;42.130;24.746;2023-02-10T12:39:19;16.73;;;8.20;;
8319;SDS011;4197;42.130;24.746;2023-02-10T12:41:55;20.43;;;9.60;;
8319;SDS011;4197;42.130;24.746;2023-02-10T12:44:34;17.83;;;9.13;;
8319;SDS011;4197;42.130;24.746;2023-02-10T12:47:17;21.10;;;9.73;;
8319;SDS011;4197;42.130;24.746;2023-02-10T12:50:00;18.27;;;9.90;;
8319;SDS011;4197;42.130;24.746;2023-02-10T12:52:44;13.47;;;8.33;;
8319;SDS011;4197;42.130;24.746;2023-02-10T12:55:22;12.60;;;8.07;;
8319;SDS011;4197;42.130;24.746;2023-02-10T12:57:55;15.53;;;9.10;;
8319;SDS011;4197;42.130;24.746;2023-02-10T13:00:29;14.80;;;8.20;;
8319;SDS011;4197;42.130;24.746;2023-02-10T13:03:03;11.57;;;8.97;;
8319;SDS011;4197;42.130;24.746;2023-02-10T13:05:38;17.83;;;8.90;;
8319;SDS011;4197;42.130;24.746;2023-02-10T13:08:11;13.80;;;8.87;;
8319;SDS011;4197;42.130;24.746;2023-02-10T13:10:45;15.90;;;8.37;;
8319;SDS011;4197;42.130;24.746;2023-02-10T13:13:17;12.33;;;8.17;;
8319;SDS011;4197;42.130;24.746;2023-02-10T13:15:48;12.50;;;8.23;;
8319;SDS011;4197;42.130;24.746;2023-02-10T13:18:21;15.87;;;8.37;;
8319;SDS011;4197;42.130;24.746;2023-02-10T13:20:55;13.50;;;8.20;;
8319;SDS011;4197;42.130;24.746;2023-02-10T13:23:29;15.60;;;9.57;;
8319;SDS011;4197;42.130;24.746;2023-02-10T13:26:20;19.60;;;11.00;;
8319;SDS011;4197;42.130;24.746;2023-02-10T13:29:01;18.03;;;10.93;;
8319;SDS011;4197;42.130;24.746;2023-02-10T13:31:43;19.20;;;12.47;;
8319;SDS011;4197;42.130;24.746;2023-02-10T13:34:27;14.47;;;9.60;;
8319;SDS011;4197;42.130;24.746;2023-02-10T13:36:59;19.47;;;9.53;;
8319;SDS011;4197;42.130;24.746;2023-02-10T13:39:33;28.10;;;11.43;;
8319;SDS011;4197;42.130;24.746;2023-02-10T13:42:05;19.87;;;10.00;;
8319;SDS011;4197;42.130;24.746;2023-02-10T13:44:36;21.23;;;10.63;;
8319;SDS011;4197;42.130;24.746;2023-02-10T13:47:12;15.60;;;9.17;;
8319;SDS011;4197;42.130;24.746;2023-02-10T13:49:52;14.07;;;9.10;;
8319;SDS011;4197;42.130;24.746;2023-02-10T13:52:28;22.60;;;9.83;;
8319;SDS011;4197;42.130;24.746;2023-02-10T13:54:59;12.93;;;9.10;;
8319;SDS011;4197;42.130;24.746;2023-02-10T13:57:31;16.07;;;9.87;;
8319;SDS011;4197;42.130;24.746;2023-02-10T14:00:14;15.73;;;9.47;;
8319;SDS011;4197;42.130;24.746;2023-02-10T14:02:45;18.10;;;10.73;;
8319;SDS011;4197;42.130;24.746;2023-02-10T14:05:28;23.10;;;12.23;;
8319;SDS011;4197;42.130;24.746;2023-02-10T14:07:59;18.80;;;10.20;;
8319;SDS011;4197;42.130;24.746;2023-02-10T14:10:29;18.70;;;10.10;;
8319;SDS011;4197;42.130;24.746;2023-02-10T14:13:01;19.33;;;12.07;;
8319;SDS011;4197;42.130;24.746;2023-02-10T14:15:32;15.40;;;10.20;;
8319;SDS011;4197;42.130;24.746;2023-02-10T14:18:04;14.87;;;9.87;;
8319;SDS011;4197;42.130;24.746;2023-02-10T14:20:55;17.10;;;10.03;;
8319;SDS011;4197;42.130;24.746;2023-02-10T14:23:26;15.50;;;9.20;;
8319;SDS011;4197;42.130;24.746;2023-02-10T14:25:57;17.73;;;9.03;;
8319;SDS011;4197;42.130;24.746;2023-02-10T14:28:28;15.73;;;10.43;;
8319;SDS011;4197;42.130;24.746;2023-02-10T14:31:03;17.23;;;9.93;;
8319;SDS011;4197;42.130;24.746;2023-02-10T14:33:34;14.43;;;8.93;;
8319;SDS011;4197;42.130;24.746;2023-02-10T14:36:06;15.50;;;8.80;;
8319;SDS011;4197;42.130;24.746;2023-02-10T14:38:44;20.33;;;9.63;;
8319;SDS011;4197;42.130;24.746;2023-02-10T14:41:17;24.23;;;10.33;;
8319;SDS011;4197;42.130;24.746;2023-02-10T14:43:47;18.33;;;11.10;;
8319;SDS011;4197;42.130;24.746;2023-02-10T14:46:19;19.63;;;9.80;;
8319;SDS011;4197;42.130;24.746;2023-02-10T14:48:49;22.67;;;10.00;;
8319;SDS011;4197;42.130;24.746;2023-02-10T14:51:26;19.00;;;9.80;;
8319;SDS011;4197;42.130;24.746;2023-02-10T14:54:06;19.53;;;10.97;;
8319;SDS011;4197;42.130;24.746;2023-02-10T14:56:39;37.80;;;18.57;;
8319;SDS011;4197;42.130;24.746;2023-02-10T14:59:17;20.10;;;10.80;;
8319;SDS011;4197;42.130;24.746;2023-02-10T15:01:49;30.87;;;11.97;;
8319;SDS011;4197;42.130;24.746;2023-02-10T15:04:25;21.73;;;10.70;;
8319;SDS011;4197;42.130;24.746;2023-02-10T15:06:55;22.43;;;11.03;;
8319;SDS011;4197;42.130;24.746;2023-02-10T15:09:27;20.27;;;10.77;;